sensor_id;sensor_type;location;lat;lon;timestamp;temperature;humidity
61672;DHT22;47572;0.00000000;0.00000000;2022-08-19T00:01:40;24.40;61.00
61672;DHT22;47572;0.00000000;0.00000000;2022-08-19T00:04:09;24.40;61.00
61672;DHT22;47572;0.00000000;0.00000000;2022-08-19T00:06:37;24.30;61.00
61672;DHT22;47572;0.00000000;0.00000000;2022-08-19T00:09:04;24.30;61.00
61672;DHT22;47572;0.00000000;0.00000000;2022-08-19T00:11:31;24.40;61.00
61672;DHT22;47572;0.00000000;0.00000000;2022-08-19T00:14:00;24.30;61.00
61672;DHT22;47572;0.00000000;0.00000000;2022-08-19T00:16:26;24.30;61.00
61672;DHT22;47572;0.00000000;0.00000000;2022-08-19T00:18:52;24.30;61.00
61672;DHT22;47572;0.00000000;0.00000000;2022-08-19T00:21:18;24.30;61.00
61672;DHT22;47572;0.00000000;0.00000000;2022-08-19T00:23:44;24.30;61.00
61672;DHT22;47572;0.00000000;0.00000000;2022-08-19T00:26:11;24.30;61.00
61672;DHT22;47572;0.00000000;0.00000000;2022-08-19T00:28:37;24.30;61.00
61672;DHT22;47572;0.00000000;0.00000000;2022-08-19T00:31:05;24.30;61.00
61672;DHT22;47572;0.00000000;0.00000000;2022-08-19T00:33:32;24.30;61.00
61672;DHT22;47572;0.00000000;0.00000000;2022-08-19T00:36:02;24.30;61.00
61672;DHT22;47572;0.00000000;0.00000000;2022-08-19T00:38:37;24.30;61.00
61672;DHT22;47572;0.00000000;0.00000000;2022-08-19T00:41:05;24.30;61.00
61672;DHT22;47572;0.00000000;0.00000000;2022-08-19T00:43:31;24.30;61.00
61672;DHT22;47572;0.00000000;0.00000000;2022-08-19T00:45:59;24.30;61.00
61672;DHT22;47572;0.00000000;0.00000000;2022-08-19T00:48:24;24.20;60.90
61672;DHT22;47572;0.00000000;0.00000000;2022-08-19T00:50:51;24.20;61.00
61672;DHT22;47572;0.00000000;0.00000000;2022-08-19T00:53:21;24.20;61.00
61672;DHT22;47572;0.00000000;0.00000000;2022-08-19T00:55:51;24.20;61.00
61672;DHT22;47572;0.00000000;0.00000000;2022-08-19T00:58:21;24.20;61.00
61672;DHT22;47572;0.00000000;0.00000000;2022-08-19T01:00:47;24.20;61.00
61672;DHT22;47572;0.00000000;0.00000000;2022-08-19T01:03:16;24.20;61.00
61672;DHT22;47572;0.00000000;0.00000000;2022-08-19T01:05:44;24.20;61.00
61672;DHT22;47572;0.00000000;0.00000000;2022-08-19T01:08:10;24.20;61.00
61672;DHT22;47572;0.00000000;0.00000000;2022-08-19T01:10:41;24.20;61.00
61672;DHT22;47572;0.00000000;0.00000000;2022-08-19T01:13:09;24.20;60.90
61672;DHT22;47572;0.00000000;0.00000000;2022-08-19T01:15:46;24.20;61.00
61672;DHT22;47572;0.00000000;0.00000000;2022-08-19T01:18:15;24.20;60.90
61672;DHT22;47572;0.00000000;0.00000000;2022-08-19T01:20:42;24.20;60.90
61672;DHT22;47572;0.00000000;0.00000000;2022-08-19T01:23:08;24.20;61.00
61672;DHT22;47572;0.00000000;0.00000000;2022-08-19T01:25:49;24.20;61.00
61672;DHT22;47572;0.00000000;0.00000000;2022-08-19T01:28:27;24.20;61.00
61672;DHT22;47572;0.00000000;0.00000000;2022-08-19T01:30:53;24.20;60.90
61672;DHT22;47572;0.00000000;0.00000000;2022-08-19T01:33:20;24.20;61.00
61672;DHT22;47572;0.00000000;0.00000000;2022-08-19T01:35:47;24.20;61.00
61672;DHT22;47572;0.00000000;0.00000000;2022-08-19T01:38:23;24.20;60.90
61672;DHT22;47572;0.00000000;0.00000000;2022-08-19T01:40:50;24.10;61.00
61672;DHT22;47572;0.00000000;0.00000000;2022-08-19T01:43:16;24.10;61.00
61672;DHT22;47572;0.00000000;0.00000000;2022-08-19T01:45:46;24.10;61.00
61672;DHT22;47572;0.00000000;0.00000000;2022-08-19T01:48:12;24.10;61.00
61672;DHT22;47572;0.00000000;0.00000000;2022-08-19T01:50:38;24.10;61.00
61672;DHT22;47572;0.00000000;0.00000000;2022-08-19T01:53:08;24.10;61.00
61672;DHT22;47572;0.00000000;0.00000000;2022-08-19T01:55:39;24.10;61.00
61672;DHT22;47572;0.00000000;0.00000000;2022-08-19T01:58:06;24.10;61.00
61672;DHT22;47572;0.00000000;0.00000000;2022-08-19T02:00:33;24.10;61.00
61672;DHT22;47572;0.00000000;0.00000000;2022-08-19T02:02:59;24.10;61.10
61672;DHT22;47572;0.00000000;0.00000000;2022-08-19T02:05:27;24.10;61.00
61672;DHT22;47572;0.00000000;0.00000000;2022-08-19T02:07:55;24.10;61.00
61672;DHT22;47572;0.00000000;0.00000000;2022-08-19T02:10:28;24.10;61.10
61672;DHT22;47572;0.00000000;0.00000000;2022-08-19T02:12:53;24.10;61.00
61672;DHT22;47572;0.00000000;0.00000000;2022-08-19T02:15:20;24.10;61.10
61672;DHT22;47572;0.00000000;0.00000000;2022-08-19T02:17:48;24.10;61.10
61672;DHT22;47572;0.00000000;0.00000000;2022-08-19T02:20:15;24.00;60.90
61672;DHT22;47572;0.00000000;0.00000000;2022-08-19T02:22:42;24.00;61.00
61672;DHT22;47572;0.00000000;0.00000000;2022-08-19T02:25:13;24.10;61.10
61672;DHT22;47572;0.00000000;0.00000000;2022-08-19T02:27:40;24.00;61.00
61672;DHT22;47572;0.00000000;0.00000000;2022-08-19T02:30:08;24.00;61.90
61672;DHT22;47572;0.00000000;0.00000000;2022-08-19T02:32:35;24.00;61.00
61672;DHT22;47572;0.00000000;0.00000000;2022-08-19T02:35:01;24.00;61.00
61672;DHT22;47572;0.00000000;0.00000000;2022-08-19T02:37:30;24.00;61.00
61672;DHT22;47572;0.00000000;0.00000000;2022-08-19T02:40:16;24.00;61.00
61672;DHT22;47572;0.00000000;0.00000000;2022-08-19T02:42:44;24.00;61.00
61672;DHT22;47572;0.00000000;0.00000000;2022-08-19T02:45:12;24.00;61.00
61672;DHT22;47572;0.00000000;0.00000000;2022-08-19T02:47:39;24.00;61.00
61672;DHT22;47572;0.00000000;0.00000000;2022-08-19T02:50:06;24.00;61.00
61672;DHT22;47572;0.00000000;0.00000000;2022-08-19T02:52:34;24.00;61.00
61672;DHT22;47572;0.00000000;0.00000000;2022-08-19T02:55:00;24.00;61.00
61672;DHT22;47572;0.00000000;0.00000000;2022-08-19T02:57:26;24.00;61.00
61672;DHT22;47572;0.00000000;0.00000000;2022-08-19T02:59:53;24.00;61.00
61672;DHT22;47572;0.00000000;0.00000000;2022-08-19T03:02:19;24.00;61.00
61672;DHT22;47572;0.00000000;0.00000000;2022-08-19T03:04:45;24.00;60.90
61672;DHT22;47572;0.00000000;0.00000000;2022-08-19T03:07:16;24.00;61.00
61672;DHT22;47572;0.00000000;0.00000000;2022-08-19T03:09:42;24.00;61.00
61672;DHT22;47572;0.00000000;0.00000000;2022-08-19T03:12:08;24.00;61.00
61672;DHT22;47572;0.00000000;0.00000000;2022-08-19T03:14:34;24.00;61.00
61672;DHT22;47572;0.00000000;0.00000000;2022-08-19T03:17:01;24.00;61.00
61672;DHT22;47572;0.00000000;0.00000000;2022-08-19T03:19:28;24.00;61.00
61672;DHT22;47572;0.00000000;0.00000000;2022-08-19T03:21:54;23.90;61.00
61672;DHT22;47572;0.00000000;0.00000000;2022-08-19T03:24:21;23.90;61.00
61672;DHT22;47572;0.00000000;0.00000000;2022-08-19T03:26:52;23.90;61.00
61672;DHT22;47572;0.00000000;0.00000000;2022-08-19T03:29:21;23.90;61.00
61672;DHT22;47572;0.00000000;0.00000000;2022-08-19T03:31:46;23.90;61.00
61672;DHT22;47572;0.00000000;0.00000000;2022-08-19T03:34:36;23.90;61.00
61672;DHT22;47572;0.00000000;0.00000000;2022-08-19T03:37:07;23.90;61.00
61672;DHT22;47572;0.00000000;0.00000000;2022-08-19T03:39:34;23.90;61.00
61672;DHT22;47572;0.00000000;0.00000000;2022-08-19T03:42:00;23.90;61.00
61672;DHT22;47572;0.00000000;0.00000000;2022-08-19T03:44:29;23.90;61.00
61672;DHT22;47572;0.00000000;0.00000000;2022-08-19T03:46:59;23.90;61.00
61672;DHT22;47572;0.00000000;0.00000000;2022-08-19T03:49:27;23.90;61.00
61672;DHT22;47572;0.00000000;0.00000000;2022-08-19T03:51:55;23.90;61.90
61672;DHT22;47572;0.00000000;0.00000000;2022-08-19T03:54:22;23.80;61.00
61672;DHT22;47572;0.00000000;0.00000000;2022-08-19T03:56:50;23.80;61.00
61672;DHT22;47572;0.00000000;0.00000000;2022-08-19T03:59:32;23.80;60.90
61672;DHT22;47572;0.00000000;0.00000000;2022-08-19T04:02:10;23.80;60.90
61672;DHT22;47572;0.00000000;0.00000000;2022-08-19T04:04:42;23.80;61.00
61672;DHT22;47572;0.00000000;0.00000000;2022-08-19T04:07:09;23.80;60.90
61672;DHT22;47572;0.00000000;0.00000000;2022-08-19T04:09:35;23.80;61.00
61672;DHT22;47572;0.00000000;0.00000000;2022-08-19T04:12:03;23.80;61.00
61672;DHT22;47572;0.00000000;0.00000000;2022-08-19T04:14:31;23.80;61.00
61672;DHT22;47572;0.00000000;0.00000000;2022-08-19T04:16:59;23.80;61.00
61672;DHT22;47572;0.00000000;0.00000000;2022-08-19T04:19:26;23.80;60.90
61672;DHT22;47572;0.00000000;0.00000000;2022-08-19T04:21:54;23.80;61.00
61672;DHT22;47572;0.00000000;0.00000000;2022-08-19T04:24:21;23.80;61.00
61672;DHT22;47572;0.00000000;0.00000000;2022-08-19T04:26:48;23.80;60.90
61672;DHT22;47572;0.00000000;0.00000000;2022-08-19T04:29:19;23.80;61.00
61672;DHT22;47572;0.00000000;0.00000000;2022-08-19T04:31:48;23.80;61.00
61672;DHT22;47572;0.00000000;0.00000000;2022-08-19T04:34:17;23.80;60.90
61672;DHT22;47572;0.00000000;0.00000000;2022-08-19T04:36:44;23.80;61.00
61672;DHT22;47572;0.00000000;0.00000000;2022-08-19T04:39:26;23.80;61.00
61672;DHT22;47572;0.00000000;0.00000000;2022-08-19T04:42:13;23.80;60.90
61672;DHT22;47572;0.00000000;0.00000000;2022-08-19T04:44:58;23.70;61.00
61672;DHT22;47572;0.00000000;0.00000000;2022-08-19T04:47:24;23.80;61.00
61672;DHT22;47572;0.00000000;0.00000000;2022-08-19T04:49:50;23.70;61.00
61672;DHT22;47572;0.00000000;0.00000000;2022-08-19T04:52:16;23.70;61.00
61672;DHT22;47572;0.00000000;0.00000000;2022-08-19T04:54:42;23.70;60.90
61672;DHT22;47572;0.00000000;0.00000000;2022-08-19T04:57:08;23.70;60.90
61672;DHT22;47572;0.00000000;0.00000000;2022-08-19T04:59:39;23.70;60.90
61672;DHT22;47572;0.00000000;0.00000000;2022-08-19T05:02:07;23.70;60.90
61672;DHT22;47572;0.00000000;0.00000000;2022-08-19T05:04:33;23.70;60.90
61672;DHT22;47572;0.00000000;0.00000000;2022-08-19T05:07:00;23.70;61.00
61672;DHT22;47572;0.00000000;0.00000000;2022-08-19T05:09:29;23.70;60.90
61672;DHT22;47572;0.00000000;0.00000000;2022-08-19T05:11:55;23.70;60.90
61672;DHT22;47572;0.00000000;0.00000000;2022-08-19T05:14:20;23.70;60.90
61672;DHT22;47572;0.00000000;0.00000000;2022-08-19T05:16:47;23.70;60.90
61672;DHT22;47572;0.00000000;0.00000000;2022-08-19T05:19:13;23.70;60.90
61672;DHT22;47572;0.00000000;0.00000000;2022-08-19T05:21:59;23.70;61.00
61672;DHT22;47572;0.00000000;0.00000000;2022-08-19T05:24:44;23.70;61.00
61672;DHT22;47572;0.00000000;0.00000000;2022-08-19T05:27:10;23.60;60.90
61672;DHT22;47572;0.00000000;0.00000000;2022-08-19T05:29:36;23.70;61.00
61672;DHT22;47572;0.00000000;0.00000000;2022-08-19T05:32:06;23.70;61.00
61672;DHT22;47572;0.00000000;0.00000000;2022-08-19T05:34:34;23.70;61.00
61672;DHT22;47572;0.00000000;0.00000000;2022-08-19T05:37:02;23.60;60.90
61672;DHT22;47572;0.00000000;0.00000000;2022-08-19T05:39:32;23.60;60.90
61672;DHT22;47572;0.00000000;0.00000000;2022-08-19T05:42:04;23.60;61.00
61672;DHT22;47572;0.00000000;0.00000000;2022-08-19T05:44:34;23.60;61.00
61672;DHT22;47572;0.00000000;0.00000000;2022-08-19T05:47:05;23.60;61.00
61672;DHT22;47572;0.00000000;0.00000000;2022-08-19T05:49:32;23.60;61.90
61672;DHT22;47572;0.00000000;0.00000000;2022-08-19T05:52:01;23.60;61.10
61672;DHT22;47572;0.00000000;0.00000000;2022-08-19T05:54:27;23.60;61.10
61672;DHT22;47572;0.00000000;0.00000000;2022-08-19T05:56:53;23.60;61.10
61672;DHT22;47572;0.00000000;0.00000000;2022-08-19T05:59:20;23.60;61.10
61672;DHT22;47572;0.00000000;0.00000000;2022-08-19T06:01:48;23.60;61.10
61672;DHT22;47572;0.00000000;0.00000000;2022-08-19T06:04:18;23.60;61.10
61672;DHT22;47572;0.00000000;0.00000000;2022-08-19T06:06:46;23.60;61.10
61672;DHT22;47572;0.00000000;0.00000000;2022-08-19T06:09:12;23.70;61.20
61672;DHT22;47572;0.00000000;0.00000000;2022-08-19T06:11:42;23.70;61.20
61672;DHT22;47572;0.00000000;0.00000000;2022-08-19T06:14:18;23.70;61.20
61672;DHT22;47572;0.00000000;0.00000000;2022-08-19T06:16:45;23.70;61.20
61672;DHT22;47572;0.00000000;0.00000000;2022-08-19T06:19:16;23.70;61.20
61672;DHT22;47572;0.00000000;0.00000000;2022-08-19T06:21:44;23.70;61.20
61672;DHT22;47572;0.00000000;0.00000000;2022-08-19T06:24:14;23.70;61.10
61672;DHT22;47572;0.00000000;0.00000000;2022-08-19T06:26:42;23.80;61.10
61672;DHT22;47572;0.00000000;0.00000000;2022-08-19T06:29:10;23.80;61.20
61672;DHT22;47572;0.00000000;0.00000000;2022-08-19T06:31:40;23.80;61.40
61672;DHT22;47572;0.00000000;0.00000000;2022-08-19T06:34:06;23.80;61.50
61672;DHT22;47572;0.00000000;0.00000000;2022-08-19T06:36:38;23.80;61.70
61672;DHT22;47572;0.00000000;0.00000000;2022-08-19T06:39:12;23.80;61.90
61672;DHT22;47572;0.00000000;0.00000000;2022-08-19T06:41:41;23.80;62.10
61672;DHT22;47572;0.00000000;0.00000000;2022-08-19T06:44:09;23.80;62.20
61672;DHT22;47572;0.00000000;0.00000000;2022-08-19T06:46:36;23.80;62.30
61672;DHT22;47572;0.00000000;0.00000000;2022-08-19T06:49:04;23.80;62.40
61672;DHT22;47572;0.00000000;0.00000000;2022-08-19T06:51:30;23.80;62.50
61672;DHT22;47572;0.00000000;0.00000000;2022-08-19T06:53:58;23.80;62.50
61672;DHT22;47572;0.00000000;0.00000000;2022-08-19T06:56:29;23.80;62.90
61672;DHT22;47572;0.00000000;0.00000000;2022-08-19T06:59:05;23.80;63.10
61672;DHT22;47572;0.00000000;0.00000000;2022-08-19T07:01:36;23.80;63.30
61672;DHT22;47572;0.00000000;0.00000000;2022-08-19T07:04:07;23.90;63.30
61672;DHT22;47572;0.00000000;0.00000000;2022-08-19T07:06:35;23.90;63.60
61672;DHT22;47572;0.00000000;0.00000000;2022-08-19T07:09:04;23.90;63.70
61672;DHT22;47572;0.00000000;0.00000000;2022-08-19T07:11:30;23.90;63.90
61672;DHT22;47572;0.00000000;0.00000000;2022-08-19T07:13:59;23.90;64.10
61672;DHT22;47572;0.00000000;0.00000000;2022-08-19T07:16:27;23.90;64.00
61672;DHT22;47572;0.00000000;0.00000000;2022-08-19T07:18:54;24.00;64.10
61672;DHT22;47572;0.00000000;0.00000000;2022-08-19T07:21:25;23.90;64.10
61672;DHT22;47572;0.00000000;0.00000000;2022-08-19T07:23:54;24.00;64.20
61672;DHT22;47572;0.00000000;0.00000000;2022-08-19T07:26:29;24.00;64.10
61672;DHT22;47572;0.00000000;0.00000000;2022-08-19T07:28:57;24.00;64.30
61672;DHT22;47572;0.00000000;0.00000000;2022-08-19T07:31:26;24.00;64.40
61672;DHT22;47572;0.00000000;0.00000000;2022-08-19T07:33:54;24.10;64.50
61672;DHT22;47572;0.00000000;0.00000000;2022-08-19T07:36:24;24.10;64.40
61672;DHT22;47572;0.00000000;0.00000000;2022-08-19T07:38:51;24.00;64.50
61672;DHT22;47572;0.00000000;0.00000000;2022-08-19T07:41:21;24.10;64.60
61672;DHT22;47572;0.00000000;0.00000000;2022-08-19T07:43:48;24.10;64.50
61672;DHT22;47572;0.00000000;0.00000000;2022-08-19T07:46:15;24.20;64.70
61672;DHT22;47572;0.00000000;0.00000000;2022-08-19T07:48:43;24.20;64.70
61672;DHT22;47572;0.00000000;0.00000000;2022-08-19T07:51:15;24.20;64.80
61672;DHT22;47572;0.00000000;0.00000000;2022-08-19T07:53:42;24.20;64.70
61672;DHT22;47572;0.00000000;0.00000000;2022-08-19T07:56:12;24.20;64.60
61672;DHT22;47572;0.00000000;0.00000000;2022-08-19T07:58:41;24.20;64.70
61672;DHT22;47572;0.00000000;0.00000000;2022-08-19T08:01:09;24.30;64.70
61672;DHT22;47572;0.00000000;0.00000000;2022-08-19T08:03:36;24.20;64.70
61672;DHT22;47572;0.00000000;0.00000000;2022-08-19T08:06:21;24.30;64.70
61672;DHT22;47572;0.00000000;0.00000000;2022-08-19T08:09:06;24.30;64.60
61672;DHT22;47572;0.00000000;0.00000000;2022-08-19T08:11:53;24.30;64.90
61672;DHT22;47572;0.00000000;0.00000000;2022-08-19T08:14:23;24.30;64.80
61672;DHT22;47572;0.00000000;0.00000000;2022-08-19T08:16:50;24.30;64.60
61672;DHT22;47572;0.00000000;0.00000000;2022-08-19T08:19:21;24.30;64.50
61672;DHT22;47572;0.00000000;0.00000000;2022-08-19T08:21:49;24.40;64.80
61672;DHT22;47572;0.00000000;0.00000000;2022-08-19T08:24:16;24.40;64.70
61672;DHT22;47572;0.00000000;0.00000000;2022-08-19T08:26:42;24.40;64.80
61672;DHT22;47572;0.00000000;0.00000000;2022-08-19T08:29:10;24.40;64.80
61672;DHT22;47572;0.00000000;0.00000000;2022-08-19T08:31:39;24.40;64.90
61672;DHT22;47572;0.00000000;0.00000000;2022-08-19T08:34:06;24.40;65.00
61672;DHT22;47572;0.00000000;0.00000000;2022-08-19T08:36:32;24.40;64.90
61672;DHT22;47572;0.00000000;0.00000000;2022-08-19T08:38:59;24.40;64.70
61672;DHT22;47572;0.00000000;0.00000000;2022-08-19T08:41:47;24.40;64.80
61672;DHT22;47572;0.00000000;0.00000000;2022-08-19T08:44:22;24.40;64.50
61672;DHT22;47572;0.00000000;0.00000000;2022-08-19T08:46:59;24.40;64.50
61672;DHT22;47572;0.00000000;0.00000000;2022-08-19T08:49:33;24.50;64.60
61672;DHT22;47572;0.00000000;0.00000000;2022-08-19T08:52:13;24.50;64.50
61672;DHT22;47572;0.00000000;0.00000000;2022-08-19T08:54:47;24.50;64.40
61672;DHT22;47572;0.00000000;0.00000000;2022-08-19T09:00:05;24.50;64.30
61672;DHT22;47572;0.00000000;0.00000000;2022-08-19T09:02:32;24.50;64.30
61672;DHT22;47572;0.00000000;0.00000000;2022-08-19T09:04:58;24.50;64.20
61672;DHT22;47572;0.00000000;0.00000000;2022-08-19T09:16:17;24.50;63.90
61672;DHT22;47572;0.00000000;0.00000000;2022-08-19T09:18:51;24.50;63.90
61672;DHT22;47572;0.00000000;0.00000000;2022-08-19T09:21:22;24.50;63.90
61672;DHT22;47572;0.00000000;0.00000000;2022-08-19T09:23:49;24.50;64.10
61672;DHT22;47572;0.00000000;0.00000000;2022-08-19T09:26:22;24.60;64.00
61672;DHT22;47572;0.00000000;0.00000000;2022-08-19T09:28:50;24.60;63.90
61672;DHT22;47572;0.00000000;0.00000000;2022-08-19T09:31:26;24.60;64.00
61672;DHT22;47572;0.00000000;0.00000000;2022-08-19T09:33:53;24.60;63.90
61672;DHT22;47572;0.00000000;0.00000000;2022-08-19T09:36:23;24.60;63.80
61672;DHT22;47572;0.00000000;0.00000000;2022-08-19T09:38:51;24.60;64.10
61672;DHT22;47572;0.00000000;0.00000000;2022-08-19T09:41:19;24.60;63.60
61672;DHT22;47572;0.00000000;0.00000000;2022-08-19T09:43:50;24.60;63.80
61672;DHT22;47572;0.00000000;0.00000000;2022-08-19T09:46:23;24.60;63.80
61672;DHT22;47572;0.00000000;0.00000000;2022-08-19T09:48:50;24.60;63.90
61672;DHT22;47572;0.00000000;0.00000000;2022-08-19T09:51:23;24.60;63.90
61672;DHT22;47572;0.00000000;0.00000000;2022-08-19T09:53:52;24.60;63.90
61672;DHT22;47572;0.00000000;0.00000000;2022-08-19T09:56:21;24.60;63.70
61672;DHT22;47572;0.00000000;0.00000000;2022-08-19T09:58:47;24.70;63.80
61672;DHT22;47572;0.00000000;0.00000000;2022-08-19T10:01:22;24.70;63.70
61672;DHT22;47572;0.00000000;0.00000000;2022-08-19T10:03:51;24.70;63.70
61672;DHT22;47572;0.00000000;0.00000000;2022-08-19T10:06:19;24.70;63.70
61672;DHT22;47572;0.00000000;0.00000000;2022-08-19T10:08:52;24.70;63.60
61672;DHT22;47572;0.00000000;0.00000000;2022-08-19T10:11:19;24.70;63.60
61672;DHT22;47572;0.00000000;0.00000000;2022-08-19T10:13:47;24.70;63.60
61672;DHT22;47572;0.00000000;0.00000000;2022-08-19T10:16:19;24.70;63.60
61672;DHT22;47572;0.00000000;0.00000000;2022-08-19T10:18:49;24.70;63.50
61672;DHT22;47572;0.00000000;0.00000000;2022-08-19T10:21:22;24.70;63.30
61672;DHT22;47572;0.00000000;0.00000000;2022-08-19T10:23:51;24.80;63.30
61672;DHT22;47572;0.00000000;0.00000000;2022-08-19T10:26:20;24.80;63.40
61672;DHT22;47572;0.00000000;0.00000000;2022-08-19T10:28:47;24.70;63.20
61672;DHT22;47572;0.00000000;0.00000000;2022-08-19T10:31:16;24.80;63.30
61672;DHT22;47572;0.00000000;0.00000000;2022-08-19T10:33:43;24.80;63.30
61672;DHT22;47572;0.00000000;0.00000000;2022-08-19T10:36:15;24.80;63.40
61672;DHT22;47572;0.00000000;0.00000000;2022-08-19T10:38:43;24.80;63.40
61672;DHT22;47572;0.00000000;0.00000000;2022-08-19T10:41:16;24.80;63.20
61672;DHT22;47572;0.00000000;0.00000000;2022-08-19T10:43:43;24.80;63.20
61672;DHT22;47572;0.00000000;0.00000000;2022-08-19T10:46:12;24.80;63.30
61672;DHT22;47572;0.00000000;0.00000000;2022-08-19T10:48:40;24.80;63.40
61672;DHT22;47572;0.00000000;0.00000000;2022-08-19T10:51:06;24.80;63.40
61672;DHT22;47572;0.00000000;0.00000000;2022-08-19T10:53:51;24.80;63.40
61672;DHT22;47572;0.00000000;0.00000000;2022-08-19T10:56:18;24.80;63.70
61672;DHT22;47572;0.00000000;0.00000000;2022-08-19T10:59:03;24.80;63.80
61672;DHT22;47572;0.00000000;0.00000000;2022-08-19T11:01:31;24.80;63.90
61672;DHT22;47572;0.00000000;0.00000000;2022-08-19T11:03:59;24.80;63.80
61672;DHT22;47572;0.00000000;0.00000000;2022-08-19T11:06:25;24.80;63.70
61672;DHT22;47572;0.00000000;0.00000000;2022-08-19T11:08:55;24.90;63.70
61672;DHT22;47572;0.00000000;0.00000000;2022-08-19T11:11:22;24.90;63.60
61672;DHT22;47572;0.00000000;0.00000000;2022-08-19T11:13:49;24.90;63.50
61672;DHT22;47572;0.00000000;0.00000000;2022-08-19T11:16:18;24.90;63.10
61672;DHT22;47572;0.00000000;0.00000000;2022-08-19T11:18:46;24.90;63.00
61672;DHT22;47572;0.00000000;0.00000000;2022-08-19T11:21:25;24.90;63.00
61672;DHT22;47572;0.00000000;0.00000000;2022-08-19T11:23:54;24.90;62.60
61672;DHT22;47572;0.00000000;0.00000000;2022-08-19T11:26:22;25.00;62.60
61672;DHT22;47572;0.00000000;0.00000000;2022-08-19T11:28:49;25.00;63.00
61672;DHT22;47572;0.00000000;0.00000000;2022-08-19T11:31:23;25.00;63.20
61672;DHT22;47572;0.00000000;0.00000000;2022-08-19T11:33:49;25.00;63.10
61672;DHT22;47572;0.00000000;0.00000000;2022-08-19T11:36:20;25.00;63.00
61672;DHT22;47572;0.00000000;0.00000000;2022-08-19T11:38:48;25.00;63.20
61672;DHT22;47572;0.00000000;0.00000000;2022-08-19T11:43:44;25.10;63.00
61672;DHT22;47572;0.00000000;0.00000000;2022-08-19T11:46:12;25.20;62.90
61672;DHT22;47572;0.00000000;0.00000000;2022-08-19T11:48:39;25.20;62.70
61672;DHT22;47572;0.00000000;0.00000000;2022-08-19T11:51:21;25.30;62.40
61672;DHT22;47572;0.00000000;0.00000000;2022-08-19T11:53:48;25.30;62.00
61672;DHT22;47572;0.00000000;0.00000000;2022-08-19T11:56:18;25.40;61.90
61672;DHT22;47572;0.00000000;0.00000000;2022-08-19T11:58:44;25.40;61.60
61672;DHT22;47572;0.00000000;0.00000000;2022-08-19T12:01:15;25.40;61.30
61672;DHT22;47572;0.00000000;0.00000000;2022-08-19T12:03:43;25.50;61.20
61672;DHT22;47572;0.00000000;0.00000000;2022-08-19T12:06:12;25.50;60.90
61672;DHT22;47572;0.00000000;0.00000000;2022-08-19T12:08:40;25.50;60.70
61672;DHT22;47572;0.00000000;0.00000000;2022-08-19T12:11:07;25.50;60.80
61672;DHT22;47572;0.00000000;0.00000000;2022-08-19T12:13:37;25.50;60.80
61672;DHT22;47572;0.00000000;0.00000000;2022-08-19T12:16:19;25.50;60.90
61672;DHT22;47572;0.00000000;0.00000000;2022-08-19T12:18:46;25.50;61.10
61672;DHT22;47572;0.00000000;0.00000000;2022-08-19T12:21:17;25.40;61.20
61672;DHT22;47572;0.00000000;0.00000000;2022-08-19T12:23:44;25.40;61.30
61672;DHT22;47572;0.00000000;0.00000000;2022-08-19T12:26:11;25.40;61.20
61672;DHT22;47572;0.00000000;0.00000000;2022-08-19T12:28:37;25.40;61.20
61672;DHT22;47572;0.00000000;0.00000000;2022-08-19T12:31:04;25.40;61.20
61672;DHT22;47572;0.00000000;0.00000000;2022-08-19T12:33:30;25.40;61.30
61672;DHT22;47572;0.00000000;0.00000000;2022-08-19T12:36:02;25.40;61.40
61672;DHT22;47572;0.00000000;0.00000000;2022-08-19T12:38:29;25.40;61.40
61672;DHT22;47572;0.00000000;0.00000000;2022-08-19T12:40:55;25.40;61.40
61672;DHT22;47572;0.00000000;0.00000000;2022-08-19T12:43:21;25.40;61.50
61672;DHT22;47572;0.00000000;0.00000000;2022-08-19T12:45:47;25.40;61.60
61672;DHT22;47572;0.00000000;0.00000000;2022-08-19T12:48:17;25.40;61.60
61672;DHT22;47572;0.00000000;0.00000000;2022-08-19T12:50:44;25.40;61.70
61672;DHT22;47572;0.00000000;0.00000000;2022-08-19T12:53:11;25.40;61.80
61672;DHT22;47572;0.00000000;0.00000000;2022-08-19T12:55:37;25.40;61.90
61672;DHT22;47572;0.00000000;0.00000000;2022-08-19T12:58:05;25.40;62.20
61672;DHT22;47572;0.00000000;0.00000000;2022-08-19T13:00:30;25.40;62.30
61672;DHT22;47572;0.00000000;0.00000000;2022-08-19T13:02:59;25.30;62.60
61672;DHT22;47572;0.00000000;0.00000000;2022-08-19T13:05:28;25.30;62.70
61672;DHT22;47572;0.00000000;0.00000000;2022-08-19T13:07:56;25.30;62.90
61672;DHT22;47572;0.00000000;0.00000000;2022-08-19T13:10:27;25.30;63.20
61672;DHT22;47572;0.00000000;0.00000000;2022-08-19T13:12:54;25.30;63.30
61672;DHT22;47572;0.00000000;0.00000000;2022-08-19T13:15:22;25.20;63.50
61672;DHT22;47572;0.00000000;0.00000000;2022-08-19T13:17:49;25.20;63.90
61672;DHT22;47572;0.00000000;0.00000000;2022-08-19T13:20:20;25.20;64.10
61672;DHT22;47572;0.00000000;0.00000000;2022-08-19T13:22:49;25.20;64.30
61672;DHT22;47572;0.00000000;0.00000000;2022-08-19T13:25:16;25.20;64.40
61672;DHT22;47572;0.00000000;0.00000000;2022-08-19T13:27:46;25.20;64.70
61672;DHT22;47572;0.00000000;0.00000000;2022-08-19T13:30:13;25.20;64.80
61672;DHT22;47572;0.00000000;0.00000000;2022-08-19T13:32:58;25.20;64.90
61672;DHT22;47572;0.00000000;0.00000000;2022-08-19T13:35:58;25.20;64.90
61672;DHT22;47572;0.00000000;0.00000000;2022-08-19T13:38:26;25.20;65.00
61672;DHT22;47572;0.00000000;0.00000000;2022-08-19T13:40:54;25.20;65.00
61672;DHT22;47572;0.00000000;0.00000000;2022-08-19T13:43:22;25.20;65.40
61672;DHT22;47572;0.00000000;0.00000000;2022-08-19T13:45:52;25.20;65.40
61672;DHT22;47572;0.00000000;0.00000000;2022-08-19T13:48:21;25.20;66.10
61672;DHT22;47572;0.00000000;0.00000000;2022-08-19T13:50:48;25.20;65.50
61672;DHT22;47572;0.00000000;0.00000000;2022-08-19T13:53:14;25.20;65.60
61672;DHT22;47572;0.00000000;0.00000000;2022-08-19T13:55:44;25.20;65.80
61672;DHT22;47572;0.00000000;0.00000000;2022-08-19T13:58:11;25.20;65.80
61672;DHT22;47572;0.00000000;0.00000000;2022-08-19T14:00:41;25.20;65.60